Time;durP1;ratioP1;P1;durP2;ratioP2;P2;SDS_P1;SDS_P2;PMS_P1;PMS_P2;Temp;Humidity;BMP_temperature;BMP_pressure;BME280_temperature;BME280_humidity;BME280_pressure;Samples;Min_cycle;Max_cycle;Signal;HPM_P1;HPM_P2
2022/03/26 00:00:22;;;;;;;4.33;4.13;;;13.70;93.30;;;;;;5022496;28;20215;-64
2022/03/26 00:02:51;;;;;;;4.53;4.32;;;13.60;93.50;;;;;;5026358;28;20209;-63
2022/03/26 00:05:18;;;;;;;4.40;4.20;;;13.50;93.80;;;;;;5029790;28;20228;-65
2022/03/26 00:07:45;;;;;;;4.63;4.40;;;13.40;94.40;;;;;;5028201;28;20291;-65
2022/03/26 00:10:13;;;;;;;4.80;4.50;;;13.20;94.30;;;;;;5028298;28;20320;-64
2022/03/26 00:12:40;;;;;;;4.15;3.95;;;13.10;94.30;;;;;;5028289;28;20220;-64
2022/03/26 00:15:08;;;;;;;5.30;5.00;;;12.90;94.50;;;;;;5028263;28;20292;-64
2022/03/26 00:17:36;;;;;;;5.20;4.87;;;12.90;94.40;;;;;;5025864;28;20212;-64
2022/03/26 00:20:06;;;;;;;5.00;4.70;;;12.70;94.50;;;;;;5031486;28;20247;-64
2022/03/26 00:22:33;;;;;;;5.65;5.35;;;12.60;94.90;;;;;;5032345;28;20284;-64
2022/03/26 00:25:00;;;;;;;5.75;5.45;;;12.50;94.90;;;;;;5032023;28;20584;-63
2022/03/26 00:27:27;;;;;;;5.10;4.80;;;12.20;95.10;;;;;;5029860;28;20232;-65
2022/03/26 00:29:54;;;;;;;5.55;5.25;;;12.10;95.30;;;;;;5028681;28;20204;-64
2022/03/26 00:32:21;;;;;;;4.95;4.65;;;12.00;95.30;;;;;;5024893;28;20204;-64
2022/03/26 00:34:48;;;;;;;5.00;4.70;;;12.00;95.50;;;;;;5024458;28;20205;-64
2022/03/26 00:37:17;;;;;;;4.97;4.68;;;12.00;95.50;;;;;;5027055;28;20235;-64
2022/03/26 00:39:44;;;;;;;5.07;4.78;;;12.00;95.50;;;;;;5032915;28;20292;-64
2022/03/26 00:42:11;;;;;;;5.38;5.07;;;12.00;95.60;;;;;;5033263;28;20220;-63
2022/03/26 00:44:38;;;;;;;5.05;4.72;;;11.90;95.70;;;;;;5031388;28;20268;-63
2022/03/26 00:47:06;;;;;;;4.70;4.50;;;11.80;95.80;;;;;;5031582;28;20626;-63
2022/03/26 00:49:33;;;;;;;5.15;4.85;;;11.90;96.30;;;;;;5018608;28;20201;-63
2022/03/26 00:52:00;;;;;;;4.80;4.50;;;11.80;96.50;;;;;;5029403;28;20268;-63
2022/03/26 00:54:30;;;;;;;4.50;4.30;;;11.70;96.60;;;;;;5024908;28;20645;-64
2022/03/26 00:56:57;;;;;;;5.15;4.85;;;11.70;96.60;;;;;;5025802;28;20275;-64
2022/03/26 00:59:24;;;;;;;4.63;4.40;;;11.70;96.70;;;;;;5029068;28;20294;-64
2022/03/26 01:01:51;;;;;;;4.43;4.18;;;11.70;97.00;;;;;;5027794;28;20323;-64
2022/03/26 01:04:18;;;;;;;4.60;4.30;;;11.60;97.40;;;;;;5024522;28;20216;-64
2022/03/26 01:06:45;;;;;;;4.75;4.45;;;11.60;97.50;;;;;;5023261;28;20307;-64
2022/03/26 01:09:12;;;;;;;4.68;4.38;;;11.50;98.10;;;;;;5024903;28;20215;-64
2022/03/26 01:11:40;;;;;;;5.28;4.97;;;11.40;97.50;;;;;;5030927;28;20211;-64
2022/03/26 01:14:07;;;;;;;4.32;4.13;;;11.30;97.70;;;;;;5030262;28;20201;-64
2022/03/26 01:16:35;;;;;;;4.75;4.40;;;11.30;98.20;;;;;;5034088;28;20302;-64
2022/03/26 01:19:02;;;;;;;4.78;4.47;;;11.20;98.30;;;;;;5030201;28;20207;-70
2022/03/26 01:21:29;;;;;;;4.83;4.53;;;11.20;98.20;;;;;;5031558;28;20243;-65
2022/03/26 01:23:56;;;;;;;4.23;4.03;;;11.20;98.20;;;;;;5024417;28;20200;-64
2022/03/26 01:26:23;;;;;;;4.50;4.30;;;11.20;98.50;;;;;;5024377;28;20307;-64
2022/03/26 01:28:52;;;;;;;4.20;4.00;;;11.10;98.60;;;;;;5030390;28;20307;-64
2022/03/26 01:31:20;;;;;;;4.53;4.30;;;11.10;99.00;;;;;;5033379;28;20666;-64
2022/03/26 01:33:48;;;;;;;4.65;4.38;;;11.00;99.20;;;;;;5027050;28;20205;-64
2022/03/26 01:36:15;;;;;;;4.30;4.10;;;10.90;99.30;;;;;;5024569;28;20233;-64
2022/03/26 01:38:42;;;;;;;4.20;4.00;;;10.70;99.20;;;;;;5032662;28;20304;-64
2022/03/26 01:41:09;;;;;;;4.30;4.10;;;10.60;99.60;;;;;;5031129;28;20236;-65
2022/03/26 01:43:37;;;;;;;4.60;4.40;;;10.60;99.90;;;;;;5022917;28;20201;-63
2022/03/26 01:46:05;;;;;;;4.50;4.20;;;10.40;99.90;;;;;;5029426;28;20704;-64
2022/03/26 01:48:32;;;;;;;4.60;4.40;;;10.20;99.90;;;;;;5026581;28;20209;-63
2022/03/26 01:51:14;;;;;;;4.20;4.00;;;10.20;99.90;;;;;;5026970;28;20771;-65
2022/03/26 01:53:42;;;;;;;4.30;4.10;;;10.30;99.90;;;;;;5032933;28;20285;-63
2022/03/26 01:56:09;;;;;;;3.95;3.75;;;10.30;99.90;;;;;;5026738;28;20291;-63
2022/03/26 01:58:36;;;;;;;4.88;4.57;;;10.30;99.90;;;;;;5021861;28;20198;-65
2022/03/26 02:01:03;;;;;;;4.22;4.03;;;10.20;99.90;;;;;;5026876;28;20224;-65
2022/03/26 02:03:32;;;;;;;4.82;4.55;;;10.20;99.90;;;;;;5024288;28;20216;-63
2022/03/26 02:05:59;;;;;;;5.32;5.03;;;10.30;99.90;;;;;;5029154;28;20337;-63
2022/03/26 02:08:26;;;;;;;4.90;4.60;;;10.20;99.90;;;;;;5028430;28;20300;-63
2022/03/26 02:10:53;;;;;;;4.10;3.90;;;10.20;99.90;;;;;;5031146;28;20201;-63
2022/03/26 02:13:20;;;;;;;4.30;4.10;;;10.30;99.90;;;;;;5026852;28;20578;-65
2022/03/26 02:15:47;;;;;;;4.07;3.88;;;10.30;99.90;;;;;;5029338;28;20299;-64
2022/03/26 02:18:14;;;;;;;4.20;4.00;;;10.50;99.90;;;;;;5032087;28;20324;-63
2022/03/26 02:20:43;;;;;;;4.15;3.95;;;10.50;99.90;;;;;;5024166;28;20685;-63
2022/03/26 02:23:10;;;;;;;4.10;3.90;;;10.40;99.90;;;;;;5032131;28;20559;-63
2022/03/26 02:25:37;;;;;;;4.78;4.57;;;10.40;99.90;;;;;;5033071;28;20651;-67
2022/03/26 02:28:04;;;;;;;5.00;4.70;;;10.20;99.90;;;;;;5033912;28;20300;-64
2022/03/26 02:30:33;;;;;;;4.45;4.25;;;10.10;99.90;;;;;;5060265;28;20235;-64
2022/03/26 02:33:00;;;;;;;4.35;4.10;;;10.00;99.90;;;;;;5061397;28;20204;-64
2022/03/26 02:35:27;;;;;;;4.68;4.38;;;9.90;99.90;;;;;;5061481;28;20319;-65
2022/03/26 02:37:55;;;;;;;4.50;4.10;;;9.80;99.90;;;;;;5061455;28;20808;-65
2022/03/26 02:40:22;;;;;;;4.05;3.85;;;9.80;99.90;;;;;;5056939;28;20677;-64
2022/03/26 02:42:49;;;;;;;4.43;4.13;;;9.80;99.90;;;;;;5054025;28;20218;-64
2022/03/26 02:45:16;;;;;;;4.00;3.80;;;9.80;99.90;;;;;;5053211;28;20311;-63
2022/03/26 02:47:43;;;;;;;4.40;4.20;;;9.60;99.90;;;;;;5053501;28;20255;-63
2022/03/26 02:50:10;;;;;;;4.63;4.32;;;9.60;99.90;;;;;;5052867;28;20232;-65
2022/03/26 02:52:37;;;;;;;4.28;4.07;;;9.50;99.90;;;;;;5053005;28;20211;-64
2022/03/26 02:55:09;;;;;;;4.38;4.18;;;9.40;99.90;;;;;;5052667;28;20295;-63
2022/03/26 02:57:36;;;;;;;4.22;4.03;;;9.40;99.90;;;;;;5052596;28;20203;-65
2022/03/26 03:00:04;;;;;;;4.10;3.90;;;9.40;99.90;;;;;;5052173;28;20299;-65
2022/03/26 03:02:31;;;;;;;4.70;4.40;;;9.50;99.90;;;;;;5052565;28;20200;-64
2022/03/26 03:04:59;;;;;;;4.10;3.90;;;9.50;99.90;;;;;;5052726;28;20310;-64
2022/03/26 03:07:26;;;;;;;4.20;3.80;;;9.40;99.90;;;;;;5052680;28;20232;-64
2022/03/26 03:09:53;;;;;;;4.35;4.05;;;9.40;99.90;;;;;;5033706;28;20766;-63
2022/03/26 03:12:22;;;;;;;4.13;3.92;;;9.40;99.90;;;;;;5035167;28;20232;-64
2022/03/26 03:14:49;;;;;;;4.07;3.88;;;9.40;99.90;;;;;;5035009;28;20212;-64
2022/03/26 03:17:16;;;;;;;4.40;4.20;;;9.30;99.90;;;;;;5045733;28;20323;-64
2022/03/26 03:19:43;;;;;;;4.30;4.10;;;9.20;99.90;;;;;;5030865;28;20208;-64
2022/03/26 03:22:10;;;;;;;4.43;4.13;;;9.20;99.90;;;;;;5035760;28;20680;-64
2022/03/26 03:24:37;;;;;;;4.10;3.90;;;9.10;99.90;;;;;;5034444;28;20308;-63
2022/03/26 03:27:05;;;;;;;4.20;4.00;;;9.00;99.90;;;;;;5030443;28;20287;-64
2022/03/26 03:29:33;;;;;;;4.30;4.10;;;9.00;99.90;;;;;;5031489;28;20200;-64
2022/03/26 03:32:01;;;;;;;4.40;4.20;;;9.00;99.90;;;;;;5031740;28;20209;-63
2022/03/26 03:34:28;;;;;;;4.07;3.87;;;9.00;99.90;;;;;;5032437;28;20725;-63
2022/03/26 03:36:55;;;;;;;4.50;4.30;;;9.00;99.90;;;;;;5048672;28;20683;-63
2022/03/26 03:39:23;;;;;;;4.40;4.10;;;8.90;99.90;;;;;;5051693;28;20231;-63
2022/03/26 03:41:50;;;;;;;4.15;3.95;;;8.80;99.90;;;;;;5052334;28;20236;-63
2022/03/26 03:44:17;;;;;;;4.05;3.85;;;8.80;99.90;;;;;;5052209;28;20250;-63
2022/03/26 03:46:45;;;;;;;4.20;4.00;;;8.80;99.90;;;;;;5052228;28;20601;-64
2022/03/26 03:49:12;;;;;;;4.20;4.00;;;8.70;99.90;;;;;;5048908;28;20300;-63
2022/03/26 03:51:39;;;;;;;4.40;4.20;;;8.70;99.90;;;;;;5032592;28;20206;-64
2022/03/26 03:54:07;;;;;;;4.63;4.32;;;8.60;99.90;;;;;;5017445;28;20209;-64
2022/03/26 03:56:33;;;;;;;4.30;4.10;;;8.60;99.90;;;;;;5023572;28;20613;-63
2022/03/26 03:59:00;;;;;;;4.73;4.53;;;8.60;99.90;;;;;;5031563;28;20239;-64
2022/03/26 04:01:27;;;;;;;4.93;4.60;;;8.60;99.90;;;;;;5031137;28;20212;-63
2022/03/26 04:03:59;;;;;;;4.50;4.30;;;8.60;99.90;;;;;;5039100;28;20228;-65
2022/03/26 04:06:26;;;;;;;4.50;4.30;;;8.50;99.90;;;;;;5046916;28;20234;-63
2022/03/26 04:08:53;;;;;;;4.77;4.47;;;8.40;99.90;;;;;;5051270;28;20212;-65
2022/03/26 04:11:20;;;;;;;4.53;4.32;;;8.40;99.90;;;;;;5035380;28;20291;-63
2022/03/26 04:13:50;;;;;;;4.20;4.00;;;8.40;99.90;;;;;;5031087;28;20295;-63
2022/03/26 04:16:17;;;;;;;4.72;4.43;;;8.40;99.90;;;;;;5030859;28;20548;-63
2022/03/26 04:18:44;;;;;;;4.15;3.95;;;8.30;99.90;;;;;;5027570;28;20240;-63
2022/03/26 04:21:13;;;;;;;4.18;3.97;;;8.30;99.90;;;;;;5010544;28;20236;-63
2022/03/26 04:23:40;;;;;;;4.63;4.43;;;8.30;99.90;;;;;;5012204;28;20212;-64
2022/03/26 04:26:08;;;;;;;4.22;4.03;;;8.30;99.90;;;;;;5027276;28;20229;-63
2022/03/26 04:28:35;;;;;;;4.53;4.22;;;8.20;99.90;;;;;;5036162;28;20208;-64
2022/03/26 04:31:04;;;;;;;4.53;4.28;;;8.30;99.90;;;;;;5038382;28;20515;-65
2022/03/26 04:33:31;;;;;;;4.10;3.90;;;8.20;99.90;;;;;;5035344;28;20294;-64
2022/03/26 04:35:58;;;;;;;4.13;3.93;;;8.10;99.90;;;;;;5036582;28;20271;-63
2022/03/26 04:38:26;;;;;;;3.90;3.70;;;8.00;99.90;;;;;;5047935;28;20295;-63
2022/03/26 04:40:53;;;;;;;4.25;4.05;;;7.90;99.90;;;;;;5029528;28;20204;-63
2022/03/26 04:43:21;;;;;;;4.53;4.23;;;7.90;99.90;;;;;;5031199;28;20240;-63
2022/03/26 04:45:47;;;;;;;4.68;4.38;;;7.80;99.90;;;;;;5032164;28;20267;-63
2022/03/26 04:48:14;;;;;;;4.55;4.30;;;7.70;99.90;;;;;;5031595;28;20279;-63
2022/03/26 04:50:41;;;;;;;4.13;3.92;;;7.60;99.90;;;;;;5033444;28;20215;-64
2022/03/26 04:53:09;;;;;;;4.30;4.10;;;7.70;99.90;;;;;;5035478;28;20232;-64
2022/03/26 04:55:37;;;;;;;4.40;4.20;;;7.50;99.90;;;;;;5035235;28;20236;-63
2022/03/26 04:58:04;;;;;;;4.22;4.03;;;7.50;99.90;;;;;;5036024;28;20280;-63
2022/03/26 05:00:31;;;;;;;4.82;4.63;;;7.40;99.90;;;;;;5034575;28;20214;-64
2022/03/26 05:02:57;;;;;;;4.78;4.47;;;7.40;99.90;;;;;;5034110;28;20299;-63
2022/03/26 05:05:25;;;;;;;4.03;3.83;;;7.40;99.90;;;;;;5035287;28;20252;-64
2022/03/26 05:07:55;;;;;;;4.63;4.32;;;7.40;99.90;;;;;;5044714;28;20243;-63
2022/03/26 05:10:27;;;;;;;4.35;4.15;;;7.40;99.90;;;;;;5047399;28;20192;-63
2022/03/26 05:12:57;;;;;;;4.17;3.97;;;7.40;99.90;;;;;;5040286;28;20654;-63
2022/03/26 05:15:27;;;;;;;4.30;4.00;;;7.40;99.90;;;;;;5036295;28;20706;-63
2022/03/26 05:17:54;;;;;;;4.32;4.10;;;7.50;99.90;;;;;;5036302;28;20847;-63
2022/03/26 05:20:23;;;;;;;4.25;3.95;;;7.40;99.90;;;;;;5039970;28;20209;-65
2022/03/26 05:22:51;;;;;;;4.53;4.22;;;7.30;99.90;;;;;;5038485;28;20299;-63
2022/03/26 05:25:19;;;;;;;4.55;4.25;;;7.30;99.90;;;;;;5036163;28;20220;-65
2022/03/26 05:27:47;;;;;;;4.00;3.80;;;7.30;99.90;;;;;;5035633;28;20227;-65
2022/03/26 05:30:16;;;;;;;4.20;4.00;;;7.30;99.90;;;;;;5035154;28;20251;-64
2022/03/26 05:32:43;;;;;;;4.40;4.00;;;7.30;99.90;;;;;;5035386;28;20330;-63
2022/03/26 05:35:13;;;;;;;4.17;3.97;;;7.30;99.90;;;;;;5035225;28;20347;-63
2022/03/26 05:37:40;;;;;;;4.30;4.10;;;7.30;99.90;;;;;;5035189;28;20229;-63
2022/03/26 05:40:09;;;;;;;3.97;3.78;;;7.20;99.90;;;;;;5034645;28;20208;-63
2022/03/26 05:42:36;;;;;;;4.17;3.93;;;7.20;99.90;;;;;;5034500;28;20258;-63
2022/03/26 05:45:03;;;;;;;4.18;3.97;;;7.20;99.90;;;;;;5035274;28;20295;-63
2022/03/26 05:47:32;;;;;;;3.87;3.67;;;7.10;99.90;;;;;;5034455;28;20225;-64
2022/03/26 05:49:59;;;;;;;5.15;4.85;;;7.10;99.90;;;;;;5034492;28;20232;-64
2022/03/26 05:52:26;;;;;;;4.43;4.13;;;7.10;99.90;;;;;;5034553;28;20211;-63
2022/03/26 05:54:53;;;;;;;4.10;3.90;;;7.20;99.90;;;;;;5034417;28;20295;-64
2022/03/26 05:57:20;;;;;;;4.03;3.83;;;7.20;99.90;;;;;;5034303;28;20245;-63
2022/03/26 05:59:48;;;;;;;4.30;4.10;;;7.30;99.90;;;;;;5033730;28;20240;-63
2022/03/26 06:02:15;;;;;;;4.00;3.80;;;7.30;99.90;;;;;;5033300;28;20288;-63
2022/03/26 06:04:43;;;;;;;4.43;4.13;;;7.40;99.90;;;;;;5034012;28;20204;-63
2022/03/26 06:07:11;;;;;;;4.33;4.13;;;7.40;99.90;;;;;;5026485;28;20221;-64
2022/03/26 06:09:38;;;;;;;4.50;4.20;;;7.40;99.90;;;;;;5013333;28;20300;-63
2022/03/26 06:12:07;;;;;;;4.18;3.97;;;7.40;99.90;;;;;;5020079;28;20205;-63
2022/03/26 06:14:35;;;;;;;4.57;4.28;;;7.30;99.90;;;;;;5033461;28;20209;-64
2022/03/26 06:17:02;;;;;;;4.40;4.20;;;7.40;99.90;;;;;;5033244;28;20232;-64
2022/03/26 06:19:29;;;;;;;3.93;3.73;;;7.40;99.90;;;;;;5032628;28;20205;-64
2022/03/26 06:21:57;;;;;;;4.80;4.50;;;7.40;99.90;;;;;;5032771;28;20201;-64
2022/03/26 06:24:24;;;;;;;4.43;4.22;;;7.60;99.90;;;;;;5033088;28;20681;-63
2022/03/26 06:26:51;;;;;;;4.45;4.25;;;7.60;99.90;;;;;;5033216;28;20589;-64
2022/03/26 06:29:18;;;;;;;4.47;4.28;;;7.50;99.90;;;;;;5032897;28;20693;-65
2022/03/26 06:31:46;;;;;;;4.83;4.53;;;7.40;99.90;;;;;;5032940;28;20625;-63
2022/03/26 06:34:13;;;;;;;5.15;4.85;;;7.50;99.90;;;;;;5033334;28;20304;-64
2022/03/26 06:36:40;;;;;;;5.67;5.30;;;7.50;99.90;;;;;;5032764;28;20271;-63
2022/03/26 06:39:09;;;;;;;5.07;4.87;;;7.50;99.90;;;;;;5040933;28;20204;-63
2022/03/26 06:41:39;;;;;;;5.00;4.70;;;7.50;99.90;;;;;;5052763;28;20242;-65
2022/03/26 06:44:07;;;;;;;5.07;4.78;;;7.70;99.90;;;;;;5052908;28;20272;-64
2022/03/26 06:46:34;;;;;;;5.00;4.70;;;7.80;99.90;;;;;;5054188;28;20232;-63
2022/03/26 06:49:01;;;;;;;4.82;4.53;;;8.00;99.90;;;;;;5037595;28;20273;-63
2022/03/26 06:51:28;;;;;;;5.70;5.40;;;8.20;99.90;;;;;;5033786;28;20271;-63
2022/03/26 06:53:55;;;;;;;6.40;6.00;;;8.20;99.90;;;;;;5033606;28;20245;-64
2022/03/26 06:56:23;;;;;;;5.97;5.63;;;8.10;99.90;;;;;;5033957;28;20271;-63
2022/03/26 06:58:50;;;;;;;5.77;5.47;;;8.20;99.90;;;;;;5036947;28;20239;-64
2022/03/26 07:01:17;;;;;;;5.82;5.43;;;8.40;99.90;;;;;;5035473;28;20263;-63
2022/03/26 07:03:44;;;;;;;6.18;5.68;;;8.40;99.90;;;;;;5034826;28;20467;-63
2022/03/26 07:06:12;;;;;;;5.93;5.63;;;8.50;99.90;;;;;;5034042;28;20221;-62
2022/03/26 07:08:39;;;;;;;6.57;6.13;;;8.50;99.90;;;;;;5033104;28;20228;-63
2022/03/26 07:11:06;;;;;;;6.27;5.87;;;8.50;99.90;;;;;;5032961;28;20296;-63
2022/03/26 07:13:34;;;;;;;5.80;5.50;;;8.60;99.90;;;;;;5031218;28;20204;-62
2022/03/26 07:16:01;;;;;;;6.30;5.90;;;8.50;99.90;;;;;;5033411;28;20315;-62
2022/03/26 07:18:28;;;;;;;5.57;5.28;;;8.60;99.90;;;;;;5032836;28;20211;-61
2022/03/26 07:20:58;;;;;;;5.82;5.53;;;8.60;99.90;;;;;;5032058;28;20216;-64
2022/03/26 07:23:25;;;;;;;5.72;5.30;;;8.60;99.90;;;;;;5032748;28;20579;-63
2022/03/26 07:25:52;;;;;;;6.57;6.07;;;8.60;99.90;;;;;;5033266;28;20311;-64
2022/03/26 07:28:19;;;;;;;6.75;6.25;;;8.60;99.90;;;;;;5032482;28;20617;-64
2022/03/26 07:30:48;;;;;;;6.30;5.85;;;8.70;99.90;;;;;;5031817;28;20617;-64
2022/03/26 07:33:15;;;;;;;7.18;6.57;;;8.70;99.90;;;;;;5031682;28;20208;-61
2022/03/26 07:35:42;;;;;;;6.45;6.05;;;8.70;99.90;;;;;;5032866;28;20327;-63
2022/03/26 07:38:09;;;;;;;7.45;6.95;;;8.80;99.90;;;;;;5032284;28;20589;-64
2022/03/26 07:40:36;;;;;;;7.90;7.40;;;8.90;99.90;;;;;;5031813;28;20300;-63
2022/03/26 07:43:03;;;;;;;6.43;5.93;;;8.90;99.90;;;;;;5032231;28;20291;-63
2022/03/26 07:45:30;;;;;;;5.90;5.50;;;9.10;99.90;;;;;;5032588;28;20228;-60
2022/03/26 07:47:59;;;;;;;6.35;5.90;;;9.20;99.90;;;;;;5032381;28;20255;-63
2022/03/26 07:50:26;;;;;;;6.05;5.65;;;9.30;99.90;;;;;;5031107;28;20197;-62
2022/03/26 07:52:53;;;;;;;9.05;5.60;;;9.40;99.90;;;;;;5027487;28;20292;-64
2022/03/26 07:55:20;;;;;;;5.68;5.35;;;9.40;99.90;;;;;;5027659;28;20678;-62
2022/03/26 07:57:47;;;;;;;5.07;4.78;;;9.50;99.90;;;;;;5031231;28;20201;-64
2022/03/26 08:00:15;;;;;;;5.85;5.45;;;9.70;99.90;;;;;;5032051;28;20219;-64
2022/03/26 08:02:42;;;;;;;5.60;5.20;;;9.90;99.90;;;;;;5031185;28;20290;-63
2022/03/26 08:05:10;;;;;;;5.03;4.72;;;10.00;99.90;;;;;;5030645;28;20295;-62
2022/03/26 08:07:37;;;;;;;5.40;5.00;;;10.10;99.90;;;;;;5031205;28;20220;-61
2022/03/26 08:10:05;;;;;;;5.57;5.27;;;10.40;99.90;;;;;;5031188;28;20291;-60
2022/03/26 08:12:32;;;;;;;5.80;5.30;;;10.40;99.90;;;;;;5030478;28;20201;-61
2022/03/26 08:14:59;;;;;;;5.18;4.78;;;10.50;99.90;;;;;;5039567;28;20223;-62
2022/03/26 08:17:29;;;;;;;5.23;4.93;;;10.60;99.90;;;;;;5038142;28;20748;-61
2022/03/26 08:19:56;;;;;;;5.13;4.75;;;10.70;99.90;;;;;;5029010;28;20640;-61
2022/03/26 08:22:24;;;;;;;5.40;5.00;;;10.80;99.90;;;;;;5025182;28;20212;-60
2022/03/26 08:24:51;;;;;;;5.90;5.50;;;11.00;99.90;;;;;;5017031;28;20204;-62
2022/03/26 08:27:18;;;;;;;5.63;5.22;;;11.10;99.90;;;;;;5014925;28;20915;-60
2022/03/26 08:29:46;;;;;;;5.60;5.05;;;11.20;99.90;;;;;;5019655;28;20201;-61
2022/03/26 08:32:13;;;;;;;5.35;5.03;;;11.30;99.90;;;;;;5024470;28;20209;-61
2022/03/26 08:34:40;;;;;;;5.80;5.40;;;11.50;99.90;;;;;;5013325;28;20532;-63
2022/03/26 08:37:08;;;;;;;5.40;5.00;;;11.60;99.90;;;;;;5023000;28;20247;-60
2022/03/26 08:39:36;;;;;;;6.03;5.63;;;11.80;99.90;;;;;;5031046;28;20212;-63
2022/03/26 08:42:04;;;;;;;5.70;5.40;;;11.80;99.90;;;;;;5031167;28;20623;-63
2022/03/26 08:44:31;;;;;;;5.97;5.57;;;12.00;99.90;;;;;;5028913;28;20714;-63
2022/03/26 08:47:02;;;;;;;6.63;6.03;;;12.00;99.90;;;;;;5029653;28;20697;-62
2022/03/26 08:49:29;;;;;;;5.90;5.50;;;12.00;99.90;;;;;;5051326;28;20239;-63
2022/03/26 08:51:56;;;;;;;5.88;5.47;;;12.20;99.90;;;;;;5039862;28;20205;-62
2022/03/26 08:54:23;;;;;;;6.20;5.80;;;12.40;99.90;;;;;;5032151;28;20295;-64
2022/03/26 08:56:52;;;;;;;6.28;5.70;;;12.60;99.90;;;;;;5031928;28;20264;-64
2022/03/26 08:59:20;;;;;;;5.55;5.25;;;12.60;99.90;;;;;;5031475;28;20236;-62
2022/03/26 09:01:47;;;;;;;6.10;5.70;;;12.70;99.90;;;;;;5026717;28;20204;-62
2022/03/26 09:04:14;;;;;;;5.82;5.43;;;12.80;99.90;;;;;;5030093;28;20287;-62
2022/03/26 09:06:41;;;;;;;6.03;5.68;;;13.00;99.90;;;;;;5027446;28;21097;-62
2022/03/26 09:09:08;;;;;;;6.00;5.60;;;12.90;99.90;;;;;;5026174;28;21025;-62
2022/03/26 09:11:36;;;;;;;5.50;5.20;;;13.10;99.90;;;;;;5031837;28;20295;-62
2022/03/26 09:14:06;;;;;;;5.90;5.50;;;13.20;99.90;;;;;;5029442;28;20201;-61
2022/03/26 09:16:33;;;;;;;6.00;5.60;;;13.30;99.90;;;;;;5025295;28;20259;-63
2022/03/26 09:19:00;;;;;;;5.82;5.32;;;13.30;99.90;;;;;;5020455;28;20211;-63
2022/03/26 09:21:27;;;;;;;5.88;5.47;;;13.50;99.90;;;;;;5022159;28;20308;-61
2022/03/26 09:23:54;;;;;;;6.00;5.60;;;13.50;99.90;;;;;;5027695;28;20209;-62
2022/03/26 09:26:21;;;;;;;6.05;5.68;;;13.70;99.90;;;;;;5027751;28;20307;-62
2022/03/26 09:28:48;;;;;;;5.55;5.25;;;13.70;99.90;;;;;;5030595;28;20251;-61
2022/03/26 09:31:16;;;;;;;5.85;5.55;;;13.90;99.90;;;;;;5016985;28;20309;-62
2022/03/26 09:33:43;;;;;;;5.85;5.35;;;14.20;99.90;;;;;;5012669;28;20232;-61
2022/03/26 09:36:10;;;;;;;5.70;5.30;;;14.20;99.90;;;;;;5019889;28;20236;-62
2022/03/26 09:38:37;;;;;;;6.05;5.45;;;14.30;99.90;;;;;;5024177;28;20586;-62
2022/03/26 09:41:06;;;;;;;5.90;5.50;;;14.30;99.90;;;;;;5019155;28;20205;-62
2022/03/26 09:43:35;;;;;;;5.80;5.40;;;14.40;99.90;;;;;;5025119;28;20256;-62
2022/03/26 09:46:03;;;;;;;6.25;5.75;;;14.50;99.90;;;;;;5033506;28;20271;-62
2022/03/26 09:48:31;;;;;;;5.57;5.28;;;14.70;99.90;;;;;;5033777;28;20232;-62
2022/03/26 09:50:58;;;;;;;5.30;4.88;;;14.70;99.90;;;;;;5021450;28;20235;-61
2022/03/26 09:53:26;;;;;;;5.60;5.30;;;14.80;99.90;;;;;;5027477;28;20284;-61
2022/03/26 09:55:53;;;;;;;5.55;5.25;;;15.10;99.90;;;;;;5021440;28;20278;-64
2022/03/26 09:58:21;;;;;;;6.18;5.75;;;15.30;99.90;;;;;;5024864;28;20224;-62
2022/03/26 10:00:48;;;;;;;5.65;5.25;;;15.40;99.90;;;;;;5031492;28;20201;-63
2022/03/26 10:03:15;;;;;;;5.73;5.40;;;15.40;99.90;;;;;;5022421;28;20202;-64
2022/03/26 10:05:43;;;;;;;6.03;5.60;;;15.70;99.90;;;;;;5026819;28;20311;-63
2022/03/26 10:08:20;;;;;;;5.63;5.32;;;15.70;99.90;;;;;;5025993;28;20224;-64
2022/03/26 10:10:48;;;;;;;5.40;5.10;;;15.80;99.90;;;;;;5032797;28;20288;-64
2022/03/26 10:13:34;;;;;;;5.43;5.10;;;16.00;99.90;;;;;;5032119;28;20224;-64
2022/03/26 10:16:02;;;;;;;5.85;5.45;;;16.20;99.90;;;;;;5024612;28;20291;-63
2022/03/26 10:18:35;;;;;;;6.18;5.68;;;16.40;99.90;;;;;;5028115;28;20817;-63
2022/03/26 10:21:06;;;;;;;6.03;5.73;;;16.40;99.90;;;;;;5020756;28;20205;-62
2022/03/26 10:23:33;;;;;;;5.75;5.45;;;16.50;99.90;;;;;;5020054;28;20631;-63
2022/03/26 10:26:12;;;;;;;5.90;5.50;;;16.60;99.90;;;;;;5016609;28;20679;-63
2022/03/26 10:28:41;;;;;;;6.43;5.93;;;16.60;99.90;;;;;;5020979;28;20260;-63
2022/03/26 10:34:09;;;;;;;5.83;5.53;;;16.70;99.90;;;;;;5017937;28;20203;-63
2022/03/26 10:36:39;;;;;;;5.68;5.35;;;17.00;99.90;;;;;;5018591;28;20852;-62
2022/03/26 10:39:07;;;;;;;6.10;5.63;;;17.20;99.90;;;;;;5017418;28;20884;-63
2022/03/26 10:41:35;;;;;;;6.45;6.05;;;17.30;99.90;;;;;;5023556;28;20328;-63
2022/03/26 10:44:10;;;;;;;6.10;5.70;;;17.50;99.90;;;;;;5025761;28;20697;-64
2022/03/26 10:46:44;;;;;;;5.85;5.55;;;17.70;99.90;;;;;;5023948;28;20221;-63
2022/03/26 10:49:12;;;;;;;5.63;5.32;;;17.80;99.90;;;;;;5014979;28;20223;-64
2022/03/26 10:51:42;;;;;;;6.20;5.80;;;18.00;99.90;;;;;;5017558;28;20221;-62
2022/03/26 10:54:10;;;;;;;5.63;5.32;;;18.00;99.90;;;;;;5015112;28;20210;-63
2022/03/26 10:56:40;;;;;;;5.65;5.35;;;18.00;99.90;;;;;;5015508;28;20213;-63
2022/03/26 10:59:08;;;;;;;5.82;5.28;;;18.10;99.90;;;;;;5011525;28;20209;-63
2022/03/26 11:01:35;;;;;;;5.93;5.53;;;18.20;99.90;;;;;;5017965;28;20687;-63
2022/03/26 11:04:03;;;;;;;5.90;5.50;;;18.20;99.70;;;;;;5015787;28;20224;-64
2022/03/26 11:06:46;;;;;;;6.03;5.72;;;18.30;99.40;;;;;;5023999;28;20228;-66
2022/03/26 11:09:14;;;;;;;5.68;5.18;;;18.20;99.40;;;;;;5021756;28;20307;-63
2022/03/26 11:11:43;;;;;;;6.07;5.68;;;18.30;99.40;;;;;;5019872;28;20243;-63
2022/03/26 11:14:15;;;;;;;5.60;5.30;;;18.50;99.10;;;;;;5024480;28;20213;-65
2022/03/26 11:17:13;;;;;;;6.70;6.30;;;18.70;99.20;;;;;;5023876;28;20252;-64
2022/03/26 11:19:56;;;;;;;6.20;5.70;;;18.70;98.70;;;;;;5021391;28;20932;-64
2022/03/26 11:22:31;;;;;;;6.22;5.82;;;18.80;98.60;;;;;;5019655;28;20230;-63
2022/03/26 11:25:43;;;;;;;6.68;6.28;;;18.70;98.30;;;;;;5026986;28;20292;-64
2022/03/26 11:28:43;;;;;;;6.22;5.82;;;18.70;98.30;;;;;;4962351;28;20325;-63
2022/03/26 11:31:19;;;;;;;6.60;6.20;;;18.80;98.00;;;;;;5016931;28;20209;-62
2022/03/26 11:33:49;;;;;;;6.03;5.63;;;18.80;98.00;;;;;;5014270;28;20292;-62
2022/03/26 11:36:19;;;;;;;5.55;5.25;;;19.00;98.60;;;;;;5017220;28;20263;-62
2022/03/26 11:38:57;;;;;;;6.00;5.60;;;19.10;97.70;;;;;;5015081;28;20201;-62
2022/03/26 11:41:32;;;;;;;5.88;5.55;;;19.10;97.50;;;;;;5019496;28;20212;-63
2022/03/26 11:44:01;;;;;;;6.22;5.80;;;19.20;97.80;;;;;;5020082;28;20200;-63
2022/03/26 11:52:39;;;;;;;6.00;5.70;;;19.60;97.20;;;;;;4949784;29;20246;-61
2022/03/26 11:55:27;;;;;;;5.88;5.47;;;19.60;96.90;;;;;;5000906;28;20216;-61
2022/03/26 11:58:20;;;;;;;5.50;5.10;;;19.80;96.10;;;;;;5012211;28;20212;-63
2022/03/26 12:00:57;;;;;;;6.30;5.90;;;20.00;96.30;;;;;;5020988;28;20220;-64
2022/03/26 12:03:25;;;;;;;6.10;5.60;;;20.10;95.50;;;;;;5020314;28;20211;-64
2022/03/26 12:08:42;;;;;;;5.68;5.38;;;20.00;94.30;;;;;;5016760;28;20608;-62
2022/03/26 12:11:13;;;;;;;5.97;5.45;;;20.00;94.30;;;;;;5017319;28;20683;-62
2022/03/26 12:13:41;;;;;;;5.80;5.50;;;20.20;94.70;;;;;;5022849;28;20252;-64
2022/03/26 12:16:08;;;;;;;5.30;4.95;;;20.30;94.10;;;;;;5025165;28;20265;-65
2022/03/26 12:18:36;;;;;;;5.47;5.13;;;20.30;94.50;;;;;;5020772;28;20203;-63
2022/03/26 12:21:08;;;;;;;5.50;5.20;;;20.40;93.20;;;;;;5017518;28;20878;-64
2022/03/26 12:23:35;;;;;;;5.50;5.10;;;20.60;93.50;;;;;;5024912;28;20243;-64
2022/03/26 12:26:05;;;;;;;5.50;5.10;;;20.70;93.40;;;;;;5024502;28;21034;-63
2022/03/26 12:28:35;;;;;;;4.97;4.70;;;20.90;93.00;;;;;;5024392;28;20572;-63
2022/03/26 12:31:04;;;;;;;4.88;4.63;;;20.90;92.60;;;;;;5014094;28;20292;-65
2022/03/26 12:33:40;;;;;;;4.88;4.60;;;21.10;93.20;;;;;;5018666;28;20209;-64
2022/03/26 12:36:08;;;;;;;4.60;4.30;;;21.20;92.90;;;;;;5019224;28;20243;-63
2022/03/26 12:38:35;;;;;;;5.30;5.00;;;21.40;93.20;;;;;;5020850;28;20292;-61
2022/03/26 12:41:04;;;;;;;5.10;4.70;;;21.40;91.10;;;;;;5017080;28;20236;-64
2022/03/26 12:43:31;;;;;;;4.30;4.10;;;21.50;92.20;;;;;;5017954;28;20197;-62
2022/03/26 12:46:02;;;;;;;4.10;3.90;;;21.60;88.10;;;;;;5012479;28;20319;-63
2022/03/26 12:48:30;;;;;;;3.97;3.78;;;21.70;88.90;;;;;;5016960;28;20300;-64
2022/03/26 12:51:02;;;;;;;4.20;3.90;;;21.80;88.90;;;;;;5013112;28;20854;-63
2022/03/26 12:53:36;;;;;;;4.25;4.00;;;21.90;86.70;;;;;;5014800;28;20205;-64
2022/03/26 12:56:03;;;;;;;4.10;3.80;;;21.90;84.40;;;;;;5017308;28;20233;-64
2022/03/26 13:01:16;;;;;;;4.43;4.13;;;22.10;84.40;;;;;;5033026;23;20243;-65
2022/03/26 13:03:44;;;;;;;3.95;3.75;;;22.10;83.20;;;;;;5013973;28;20213;-66
2022/03/26 13:06:15;;;;;;;4.20;4.00;;;21.90;82.00;;;;;;5015784;28;20291;-65
2022/03/26 13:08:48;;;;;;;4.50;4.20;;;22.10;82.60;;;;;;5015647;28;20289;-67
2022/03/26 13:11:15;;;;;;;4.15;3.90;;;22.10;82.60;;;;;;5022479;28;20233;-66